Time;durP1;ratioP1;P1;durP2;ratioP2;P2;SDS_P1;SDS_P2;PMS_P1;PMS_P2;Temp;Humidity;BMP_temperature;BMP_pressure;BME280_temperature;BME280_humidity;BME280_pressure;Samples;Min_cycle;Max_cycle;Signal;HPM_P1;HPM_P2
2024/01/06 00:01:45;;;;;;;16.70;10.70;;;;;;;0.07;100.00;96857.13;110350;1238;59744;-75
2024/01/06 00:04:15;;;;;;;17.50;11.90;;;;;;;0.05;100.00;96851.73;110465;1241;70701;-75
2024/01/06 00:06:46;;;;;;;14.90;11.90;;;;;;;0.00;100.00;96849.00;110452;1242;69086;-75
2024/01/06 00:09:16;;;;;;;21.10;14.10;;;;;;;-0.07;100.00;96847.89;110423;1242;69284;-75
2024/01/06 00:11:46;;;;;;;;;;;;;;;-0.13;100.00;96845.76;110449;1241;59683;-75
2024/01/06 00:14:16;;;;;;;16.70;10.60;;;;;;;-0.19;100.00;96843.09;110362;1242;59679;-75
2024/01/06 00:16:47;;;;;;;12.50;8.90;;;;;;;-0.24;100.00;96850.45;110353;1242;69831;-74
2024/01/06 00:19:18;;;;;;;11.70;8.30;;;;;;;-0.29;100.00;96852.00;110330;1242;69265;-74
2024/01/06 00:21:48;;;;;;;13.60;10.00;;;;;;;-0.33;100.00;96846.34;110444;1242;69726;-75
2024/01/06 00:24:17;;;;;;;13.20;9.10;;;;;;;-0.35;100.00;96850.04;110452;1242;59696;-74
2024/01/06 00:26:47;;;;;;;13.10;8.90;;;;;;;-0.38;100.00;96849.47;110437;1242;59676;-75
2024/01/06 00:29:16;;;;;;;12.70;8.70;;;;;;;-0.41;100.00;96850.09;110470;1242;70827;-74
2024/01/06 00:31:46;;;;;;;;;;;;;;;-0.42;100.00;96848.25;110518;1242;69208;-75
2024/01/06 00:34:16;;;;;;;14.40;11.40;;;;;;;-0.44;100.00;96846.27;110412;1241;69720;-75
2024/01/06 00:36:46;;;;;;;41.40;27.60;;;;;;;-0.48;100.00;96850.02;110496;1242;59724;-75
2024/01/06 00:39:16;;;;;;;27.20;19.50;;;;;;;-0.54;100.00;96856.05;110471;1242;59705;-74
2024/01/06 00:41:47;;;;;;;27.00;19.30;;;;;;;-0.61;100.00;96850.67;110461;1241;70641;-75
2024/01/06 00:44:17;;;;;;;24.00;16.30;;;;;;;-0.67;100.00;96842.84;110355;1238;69248;-75
2024/01/06 00:46:48;;;;;;;18.20;13.00;;;;;;;-0.70;100.00;96844.67;110431;1242;69433;-74
2024/01/06 00:49:18;;;;;;;16.30;11.20;;;;;;;-0.74;100.00;96846.38;110408;1239;59767;-75
2024/01/06 00:51:49;;;;;;;;;;;;;;;-0.77;100.00;96849.02;110383;1242;59716;-75
2024/01/06 00:54:19;;;;;;;22.10;15.50;;;;;;;-0.80;100.00;96845.88;110423;1241;72352;-75
2024/01/06 00:56:49;;;;;;;;;;;;;;;-0.81;100.00;96855.02;110468;1241;69628;-75
2024/01/06 00:59:19;;;;;;;19.80;11.80;;;;;;;-0.84;100.00;96859.39;110376;1238;68731;-75
2024/01/06 01:01:49;;;;;;;20.00;12.70;;;;;;;-0.84;100.00;96858.02;110446;1238;59704;-75
2024/01/06 01:04:19;;;;;;;;;;;;;;;-0.87;100.00;96856.93;110374;1242;59619;-75
2024/01/06 01:06:49;;;;;;;;;;;;;;;-0.91;100.00;96851.09;110382;1242;71215;-75
2024/01/06 01:09:20;;;;;;;14.30;10.40;;;;;;;-0.96;100.00;96844.42;110372;1241;69599;-75
2024/01/06 01:11:51;;;;;;;13.40;9.40;;;;;;;-0.96;100.00;96838.47;110519;1248;69899;-74
2024/01/06 01:14:22;;;;;;;11.80;9.00;;;;;;;-0.95;100.00;96839.61;110421;1241;59714;-75
2024/01/06 01:16:53;;;;;;;14.60;10.70;;;;;;;-0.93;100.00;96839.52;110429;1242;59630;-75
2024/01/06 01:19:24;;;;;;;13.20;9.50;;;;;;;-0.91;100.00;96835.86;110481;1242;71796;-75
2024/01/06 01:21:55;;;;;;;14.90;11.60;;;;;;;-0.90;100.00;96820.62;110452;1242;69196;-75
2024/01/06 01:24:26;;;;;;;15.50;12.90;;;;;;;-0.89;100.00;96809.10;110445;1242;69257;-75
2024/01/06 01:26:57;;;;;;;16.70;11.50;;;;;;;-0.87;100.00;96795.34;110399;1245;59682;-75
2024/01/06 01:29:27;;;;;;;16.50;11.60;;;;;;;-0.86;100.00;96798.54;110436;1242;59657;-75
2024/01/06 01:31:57;;;;;;;16.50;12.80;;;;;;;-0.86;100.00;96814.80;110491;1242;71373;-75
2024/01/06 01:34:28;;;;;;;17.00;11.20;;;;;;;-0.86;100.00;96825.44;110283;1244;68482;-75
2024/01/06 01:37:00;;;;;;;18.00;10.80;;;;;;;-0.89;100.00;96821.42;110497;1241;68548;-75
2024/01/06 01:39:30;;;;;;;15.70;10.00;;;;;;;-0.95;100.00;96818.08;110353;1238;59747;-75
2024/01/06 01:42:01;;;;;;;13.20;8.70;;;;;;;-0.98;100.00;96823.27;110628;1241;59689;-75
2024/01/06 01:44:31;;;;;;;;;;;;;;;-0.99;100.00;96823.33;110486;1242;70628;-75
2024/01/06 01:47:05;;;;;;;12.60;9.80;;;;;;;-1.02;100.00;96811.27;110415;1239;68609;-75
2024/01/06 01:49:35;;;;;;;16.50;12.90;;;;;;;-1.05;100.00;96797.35;110406;1242;69167;-75
2024/01/06 01:52:07;;;;;;;19.90;13.80;;;;;;;-1.05;100.00;96796.17;110380;1242;59738;-75
2024/01/06 01:54:38;;;;;;;13.80;11.10;;;;;;;-1.08;100.00;96798.15;110636;1238;59708;-76
2024/01/06 01:57:11;;;;;;;18.00;11.90;;;;;;;-1.09;100.00;96794.27;110846;1242;71842;-75
2024/01/06 01:59:42;;;;;;;16.90;11.80;;;;;;;-1.12;100.00;96792.98;111054;1241;70972;-76
2024/01/06 02:02:14;;;;;;;17.50;11.00;;;;;;;-1.16;100.00;96789.02;111009;1238;67512;-75
2024/01/06 02:04:45;;;;;;;13.70;9.50;;;;;;;-1.19;100.00;96787.80;110969;1241;60186;-76
2024/01/06 02:07:17;;;;;;;12.50;9.40;;;;;;;-1.19;100.00;96783.34;110598;1242;59753;-75
2024/01/06 02:09:50;;;;;;;11.80;8.10;;;;;;;-1.16;100.00;96780.33;110576;1241;71709;-74
2024/01/06 02:12:21;;;;;;;11.20;7.20;;;;;;;-1.13;100.00;96782.26;110481;1241;68232;-74
2024/01/06 02:14:54;;;;;;;14.40;10.20;;;;;;;-1.09;100.00;96783.33;110419;1242;69345;-75
2024/01/06 02:17:25;;;;;;;11.70;8.70;;;;;;;-1.09;100.00;96784.85;110406;1241;59719;-75
2024/01/06 02:19:57;;;;;;;12.40;9.30;;;;;;;-1.07;100.00;96784.09;110387;1242;59746;-75
2024/01/06 02:22:31;;;;;;;12.30;8.70;;;;;;;-1.05;100.00;96784.21;110491;1238;71443;-75
2024/01/06 02:25:03;;;;;;;13.40;10.00;;;;;;;-1.03;100.00;96785.66;110373;1241;68489;-74
2024/01/06 02:27:34;;;;;;;12.70;8.10;;;;;;;-1.01;100.00;96784.76;110369;1240;69558;-73
2024/01/06 02:30:09;;;;;;;13.00;9.20;;;;;;;-0.99;100.00;96780.39;110392;1241;59681;-74
2024/01/06 02:32:41;;;;;;;14.50;10.00;;;;;;;-0.96;100.00;96775.17;110433;1238;60046;-74
2024/01/06 02:35:13;;;;;;;11.60;7.80;;;;;;;-0.95;100.00;96775.45;110369;1241;70460;-73
2024/01/06 02:37:43;;;;;;;;;;;;;;;-0.91;100.00;96775.14;110358;1238;68486;-74
2024/01/06 02:40:18;;;;;;;7.10;5.90;;;;;;;-0.87;100.00;96776.00;110318;1242;68657;-74
2024/01/06 02:42:48;;;;;;;11.30;8.10;;;;;;;-0.81;100.00;96772.70;110362;1242;59718;-74
2024/01/06 02:45:19;;;;;;;10.40;7.30;;;;;;;-0.77;100.00;96769.46;110396;1241;59627;-74
2024/01/06 02:47:49;;;;;;;10.60;7.50;;;;;;;-0.73;100.00;96768.27;110425;1241;71358;-73
2024/01/06 02:50:22;;;;;;;13.00;8.10;;;;;;;-0.71;100.00;96765.14;110177;1244;69105;-74
2024/01/06 02:52:54;;;;;;;12.20;8.50;;;;;;;-0.72;100.00;96759.16;110418;1242;68051;-74
2024/01/06 02:55:23;;;;;;;10.20;7.40;;;;;;;-0.70;100.00;96757.07;110425;1243;59738;-74
2024/01/06 02:57:55;;;;;;;11.10;7.90;;;;;;;-0.69;100.00;96756.49;110420;1241;59967;-74
2024/01/06 03:00:26;;;;;;;11.30;8.60;;;;;;;-0.67;100.00;96750.94;110370;1241;71268;-76
2024/01/06 03:02:57;;;;;;;12.70;9.00;;;;;;;-0.64;100.00;96743.65;110382;1242;69262;-75
2024/01/06 03:05:28;;;;;;;11.50;7.00;;;;;;;-0.63;100.00;96743.45;110320;1241;69192;-74
2024/01/06 03:07:59;;;;;;;10.50;7.20;;;;;;;-0.61;100.00;96751.92;110386;1241;59675;-74
2024/01/06 03:10:31;;;;;;;11.80;7.80;;;;;;;-0.60;100.00;96747.41;110311;1241;59762;-75
2024/01/06 03:13:03;;;;;;;8.30;6.40;;;;;;;-0.58;100.00;96749.38;110335;1242;71219;-74
2024/01/06 03:15:33;;;;;;;9.50;7.40;;;;;;;-0.54;100.00;96749.09;110329;1242;70091;-74
2024/01/06 03:18:05;;;;;;;8.60;6.50;;;;;;;-0.50;100.00;96744.80;110370;1242;68409;-75
2024/01/06 03:20:37;;;;;;;9.10;6.10;;;;;;;-0.45;100.00;96745.31;110269;1242;59713;-75
2024/01/06 03:23:11;;;;;;;10.50;7.10;;;;;;;-0.42;100.00;96745.16;110427;1241;59666;-74
2024/01/06 03:25:42;;;;;;;9.00;5.50;;;;;;;-0.38;100.00;96742.09;110387;1242;71225;-75
2024/01/06 03:28:15;;;;;;;12.10;7.30;;;;;;;-0.32;100.00;96741.17;110300;1244;69222;-75
2024/01/06 03:30:46;;;;;;;11.50;7.80;;;;;;;-0.28;100.00;96741.02;110308;1242;69324;-74
2024/01/06 03:33:18;;;;;;;10.80;7.80;;;;;;;-0.26;100.00;96738.02;110344;1242;60143;-74
2024/01/06 03:35:52;;;;;;;11.30;7.60;;;;;;;-0.22;100.00;96731.17;110281;1242;59646;-74
2024/01/06 03:38:22;;;;;;;12.20;8.00;;;;;;;-0.19;100.00;96732.61;110297;1242;71161;-74
2024/01/06 03:40:53;;;;;;;12.70;7.60;;;;;;;-0.17;100.00;96733.23;110317;1242;69242;-75
2024/01/06 03:43:25;;;;;;;12.70;8.40;;;;;;;-0.16;100.00;96735.20;110289;1242;69103;-74
2024/01/06 03:45:59;;;;;;;9.80;7.90;;;;;;;-0.13;100.00;96732.20;110476;1242;59741;-74
2024/01/06 03:48:30;;;;;;;13.40;7.80;;;;;;;-0.09;100.00;96729.61;110348;1241;59678;-74
2024/01/06 03:51:01;;;;;;;12.70;7.80;;;;;;;-0.06;100.00;96723.65;110353;1240;70630;-74
2024/01/06 03:53:35;;;;;;;10.40;6.70;;;;;;;-0.03;100.00;96722.70;110360;1242;69211;-74
2024/01/06 03:56:08;;;;;;;10.30;6.60;;;;;;;0.02;100.00;96723.54;110314;1242;69225;-74
2024/01/06 03:58:40;;;;;;;10.40;6.50;;;;;;;0.04;100.00;96723.42;110326;1242;59728;-74
2024/01/06 04:01:21;;;;;;;10.30;6.80;;;;;;;0.07;100.00;96721.74;110367;1242;59730;-74
2024/01/06 04:03:51;;;;;;;13.20;8.20;;;;;;;0.11;100.00;96723.31;110430;1241;71418;-75
2024/01/06 04:06:22;;;;;;;11.30;8.00;;;;;;;0.14;100.00;96716.50;110447;1243;69284;-74
2024/01/06 04:08:55;;;;;;;12.70;9.40;;;;;;;0.15;100.00;96716.46;110417;1241;68323;-74
2024/01/06 04:11:27;;;;;;;13.00;8.70;;;;;;;0.16;100.00;96721.23;110407;1241;59686;-75
2024/01/06 04:13:58;;;;;;;14.80;10.10;;;;;;;0.16;100.00;96726.36;110576;1238;60147;-75
2024/01/06 04:16:33;;;;;;;14.00;10.60;;;;;;;0.17;100.00;96734.69;110445;1241;71252;-75
2024/01/06 04:19:07;;;;;;;14.80;9.60;;;;;;;0.18;100.00;96732.77;110576;1242;69118;-75
2024/01/06 04:21:37;;;;;;;15.90;10.10;;;;;;;0.22;100.00;96735.52;110521;1249;69381;-75
2024/01/06 04:24:09;;;;;;;12.30;8.90;;;;;;;0.25;100.00;96740.55;110479;1242;59684;-75
2024/01/06 04:26:39;;;;;;;;;;;;;;;0.21;100.00;96740.36;110479;1241;59705;-74
2024/01/06 04:29:08;;;;;;;12.50;8.30;;;;;;;0.21;100.00;96741.23;110372;1242;70458;-75
2024/01/06 04:31:38;;;;;;;13.50;10.20;;;;;;;0.19;100.00;96740.78;110394;1238;69244;-74
2024/01/06 04:34:09;;;;;;;21.80;14.40;;;;;;;0.19;100.00;96736.16;110482;1242;69366;-75
2024/01/06 04:36:39;;;;;;;15.50;11.50;;;;;;;0.13;100.00;96732.29;110498;1241;59724;-75
2024/01/06 04:39:12;;;;;;;15.40;10.80;;;;;;;0.12;100.00;96730.45;110400;1242;59674;-74
2024/01/06 04:41:42;;;;;;;12.50;9.00;;;;;;;0.18;100.00;96723.04;110425;1241;70824;-74
2024/01/06 04:44:12;;;;;;;11.50;8.20;;;;;;;0.22;100.00;96716.31;110458;1238;69248;-75
2024/01/06 04:46:42;;;;;;;;;;;;;;;0.29;100.00;96711.25;110445;1241;68357;-75
2024/01/06 04:49:12;;;;;;;14.70;9.80;;;;;;;0.34;100.00;96702.46;110416;1241;59679;-74
2024/01/06 04:51:48;;;;;;;14.80;10.80;;;;;;;0.38;100.00;96693.69;110406;1242;59694;-74
2024/01/06 04:54:21;;;;;;;12.60;8.30;;;;;;;0.43;100.00;96697.43;110459;1242;69932;-75
2024/01/06 04:56:52;;;;;;;14.80;9.30;;;;;;;0.47;100.00;96693.98;110469;1238;68357;-75
2024/01/06 04:59:23;;;;;;;12.10;8.50;;;;;;;0.53;100.00;96690.65;110389;1238;69164;-75
2024/01/06 05:01:55;;;;;;;11.10;7.30;;;;;;;0.58;100.00;96692.30;110407;1241;60161;-75
2024/01/06 05:04:28;;;;;;;11.10;7.80;;;;;;;0.63;100.00;96689.34;110437;1241;59672;-75
2024/01/06 05:06:59;;;;;;;10.70;7.80;;;;;;;0.68;100.00;96690.50;110466;1238;71439;-75
2024/01/06 05:09:31;;;;;;;12.80;8.70;;;;;;;0.71;100.00;96691.89;110444;1241;68425;-75
2024/01/06 05:12:05;;;;;;;9.40;7.60;;;;;;;0.75;100.00;96697.56;110456;1241;69295;-75
2024/01/06 05:14:36;;;;;;;10.60;8.00;;;;;;;0.79;100.00;96695.48;110394;1242;59631;-75
2024/01/06 05:17:08;;;;;;;9.70;7.50;;;;;;;0.83;100.00;96695.48;110227;1243;59790;-75
2024/01/06 05:19:39;;;;;;;11.10;7.20;;;;;;;0.82;100.00;96700.66;110504;1241;69881;-75
2024/01/06 05:22:11;;;;;;;9.60;7.30;;;;;;;0.86;100.00;96702.36;110452;1242;69090;-75
2024/01/06 05:24:40;;;;;;;;;;;;;;;0.85;100.00;96705.98;110516;1242;68171;-75
2024/01/06 05:27:11;;;;;;;10.80;8.20;;;;;;;0.84;100.00;96703.52;110407;1241;59686;-75
2024/01/06 05:29:42;;;;;;;15.30;9.90;;;;;;;0.82;100.00;96702.02;110399;1242;59705;-75
2024/01/06 05:32:13;;;;;;;13.30;9.10;;;;;;;0.81;100.00;96702.42;110493;1242;71449;-75
2024/01/06 05:34:44;;;;;;;17.50;13.70;;;;;;;0.76;100.00;96692.87;110489;1241;69534;-75
2024/01/06 05:37:17;;;;;;;17.10;11.30;;;;;;;0.74;100.00;96690.89;110498;1242;67839;-75
2024/01/06 05:39:48;;;;;;;20.20;14.40;;;;;;;0.73;100.00;96692.48;110487;1242;59667;-75
2024/01/06 05:42:18;;;;;;;18.60;14.10;;;;;;;0.73;100.00;96694.55;110410;1242;59681;-75
2024/01/06 05:44:48;;;;;;;16.40;11.10;;;;;;;0.71;100.00;96688.98;110405;1240;71517;-75
2024/01/06 05:47:18;;;;;;;15.40;11.80;;;;;;;0.73;100.00;96688.38;110453;1242;69479;-75
2024/01/06 05:49:50;;;;;;;13.60;10.80;;;;;;;0.77;100.00;96686.31;110470;1243;69627;-75
2024/01/06 05:52:21;;;;;;;14.20;10.80;;;;;;;0.81;100.00;96685.10;110378;1241;59746;-74
2024/01/06 05:54:51;;;;;;;16.10;11.60;;;;;;;0.85;100.00;96684.76;110510;1241;59737;-75
2024/01/06 05:57:21;;;;;;;12.80;9.50;;;;;;;0.89;100.00;96684.91;110484;1242;71399;-74
2024/01/06 05:59:51;;;;;;;;;;;;;;;0.92;100.00;96679.42;110421;1242;69267;-76
2024/01/06 06:02:21;;;;;;;;;;;;;;;0.97;100.00;96682.64;110392;1238;69124;-76
2024/01/06 06:04:53;;;;;;;8.80;7.40;;;;;;;1.03;100.00;96688.88;110449;1242;60137;-75
2024/01/06 06:07:23;;;;;;;11.60;9.50;;;;;;;1.05;100.00;96694.61;110363;1242;59708;-75
2024/01/06 06:09:53;;;;;;;14.90;11.10;;;;;;;1.10;100.00;96688.75;110469;1242;70545;-75
2024/01/06 06:12:24;;;;;;;12.90;8.80;;;;;;;1.15;100.00;96693.52;110529;1242;67497;-76
2024/01/06 06:14:55;;;;;;;17.20;12.60;;;;;;;1.20;100.00;96689.64;110338;1242;69362;-75
2024/01/06 06:17:26;;;;;;;24.10;17.90;;;;;;;1.29;100.00;96688.54;110421;1241;60087;-75
2024/01/06 06:19:57;;;;;;;22.40;15.80;;;;;;;1.31;100.00;96691.05;110356;1241;59788;-75
2024/01/06 06:22:30;;;;;;;20.60;16.20;;;;;;;1.25;100.00;96688.52;110363;1238;71864;-75
2024/01/06 06:25:01;;;;;;;22.20;16.60;;;;;;;1.22;100.00;96686.13;110407;1238;69124;-75
2024/01/06 06:27:32;;;;;;;22.40;16.40;;;;;;;1.16;100.00;96683.83;110318;1242;68973;-75
2024/01/06 06:30:03;;;;;;;25.10;19.90;;;;;;;1.14;100.00;96679.30;110493;1238;59693;-75
2024/01/06 06:32:32;;;;;;;27.00;18.00;;;;;;;1.09;100.00;96683.81;110372;1242;59667;-75
2024/01/06 06:35:04;;;;;;;23.70;19.40;;;;;;;1.06;100.00;96672.65;110368;1239;70342;-75
2024/01/06 06:37:34;;;;;;;22.60;16.70;;;;;;;1.05;100.00;96674.91;110491;1241;68395;-73
2024/01/06 06:40:05;;;;;;;24.10;18.60;;;;;;;1.06;100.00;96677.93;110465;1238;68742;-73
2024/01/06 06:42:35;;;;;;;25.10;18.60;;;;;;;1.07;100.00;96679.95;110392;1242;59766;-73
2024/01/06 06:45:05;;;;;;;24.30;16.70;;;;;;;1.11;100.00;96680.11;110495;1242;59689;-74
2024/01/06 06:47:34;;;;;;;21.70;16.00;;;;;;;1.16;100.00;96677.27;110397;1240;70646;-74
2024/01/06 06:50:05;;;;;;;21.30;15.80;;;;;;;1.21;100.00;96674.85;110429;1242;68343;-75
2024/01/06 06:52:34;;;;;;;20.90;14.30;;;;;;;1.27;100.00;96669.59;110443;1242;69298;-74
2024/01/06 06:55:04;;;;;;;23.60;18.90;;;;;;;1.35;100.00;96674.17;110483;1241;59714;-74
2024/01/06 06:57:33;;;;;;;22.30;16.70;;;;;;;1.40;100.00;96671.69;110379;1243;59625;-74
2024/01/06 07:00:03;;;;;;;21.00;16.10;;;;;;;1.46;100.00;96665.55;110586;1241;71798;-74
2024/01/06 07:02:33;;;;;;;20.70;15.30;;;;;;;1.53;100.00;96667.48;110600;1242;69148;-74
2024/01/06 07:05:02;;;;;;;31.30;24.20;;;;;;;1.55;100.00;96664.46;110526;1242;69292;-75
2024/01/06 07:07:33;;;;;;;27.10;20.60;;;;;;;1.50;100.00;96676.02;110314;1249;60005;-75
2024/01/06 07:10:04;;;;;;;24.20;16.40;;;;;;;1.41;100.00;96661.69;110537;1243;59632;-75
2024/01/06 07:12:34;;;;;;;32.50;20.60;;;;;;;1.29;100.00;96677.37;110434;1243;70870;-74
2024/01/06 07:15:03;;;;;;;22.00;17.00;;;;;;;1.24;100.00;96673.15;110436;1242;69723;-75
2024/01/06 07:17:35;;;;;;;22.00;16.30;;;;;;;1.28;100.00;96670.20;110570;1242;70001;-75
2024/01/06 07:20:07;;;;;;;29.70;23.90;;;;;;;1.35;100.00;96676.94;110174;1238;59712;-75
2024/01/06 07:22:36;;;;;;;23.50;17.50;;;;;;;1.37;100.00;96676.31;110407;1248;60135;-75
2024/01/06 07:25:07;;;;;;;43.30;31.50;;;;;;;1.40;100.00;96675.80;110436;1242;71944;-75
2024/01/06 07:27:35;;;;;;;;;;;;;;;1.37;100.00;96669.79;110350;1242;69209;-75
2024/01/06 07:30:08;;;;;;;25.00;17.50;;;;;;;1.45;100.00;96667.48;110442;1242;69652;-75
2024/01/06 07:32:37;;;;;;;28.90;19.60;;;;;;;1.41;100.00;96667.90;110543;1241;59730;-75
2024/01/06 07:35:08;;;;;;;21.80;15.60;;;;;;;1.41;100.00;96652.43;110536;1242;59731;-75
2024/01/06 07:37:38;;;;;;;28.50;17.90;;;;;;;1.43;100.00;96653.54;110424;1238;71951;-75
2024/01/06 07:40:09;;;;;;;23.70;16.10;;;;;;;1.37;100.00;96652.23;110378;1238;69265;-75
2024/01/06 07:42:37;;;;;;;20.00;13.90;;;;;;;1.53;100.00;96644.44;110351;1242;68405;-76
2024/01/06 07:45:07;;;;;;;23.80;17.60;;;;;;;1.62;100.00;96641.42;110366;1249;59689;-76
2024/01/06 07:47:38;;;;;;;19.50;13.90;;;;;;;1.70;100.00;96643.42;110558;1242;59721;-75
2024/01/06 07:50:09;;;;;;;18.90;13.70;;;;;;;1.81;100.00;96646.17;110465;1238;71237;-75
2024/01/06 07:52:38;;;;;;;21.80;15.80;;;;;;;1.93;100.00;96651.59;110518;1242;69246;-75
2024/01/06 07:55:08;;;;;;;25.60;17.70;;;;;;;2.04;100.00;96659.27;110378;1238;68528;-75
2024/01/06 07:57:37;;;;;;;21.80;16.90;;;;;;;2.15;100.00;96655.10;110507;1241;59663;-74
2024/01/06 08:00:08;;;;;;;19.80;14.40;;;;;;;2.25;100.00;96657.52;110583;1241;59682;-75
2024/01/06 08:02:42;;;;;;;21.50;16.90;;;;;;;2.30;100.00;96654.63;110501;1241;71335;-75
2024/01/06 08:05:12;;;;;;;22.90;18.90;;;;;;;2.42;100.00;96653.70;110406;1242;69561;-75
2024/01/06 08:07:41;;;;;;;19.60;16.80;;;;;;;2.51;100.00;96649.62;110499;1243;69332;-75
2024/01/06 08:10:10;;;;;;;18.40;15.80;;;;;;;2.62;100.00;96648.52;110429;1242;60062;-75
2024/01/06 08:12:40;;;;;;;16.00;13.00;;;;;;;2.74;100.00;96653.75;110383;1243;59684;-75
2024/01/06 08:15:09;;;;;;;15.70;12.60;;;;;;;2.84;100.00;96655.79;110351;1242;71386;-75
2024/01/06 08:17:40;;;;;;;16.20;12.80;;;;;;;2.94;100.00;96653.52;110461;1239;69422;-75
2024/01/06 08:20:10;;;;;;;16.70;12.00;;;;;;;3.06;100.00;96644.95;110360;1242;69886;-75
2024/01/06 08:22:39;;;;;;;19.60;16.20;;;;;;;3.19;100.00;96642.81;110517;1242;59741;-76
2024/01/06 08:25:08;;;;;;;23.50;17.60;;;;;;;3.40;100.00;96640.95;110508;1242;59675;-75
2024/01/06 08:27:37;;;;;;;20.50;16.10;;;;;;;3.61;100.00;96636.38;110377;1242;70633;-75
2024/01/06 08:30:07;;;;;;;21.60;18.60;;;;;;;3.78;100.00;96634.49;110442;1242;70188;-76
2024/01/06 08:32:37;;;;;;;23.00;17.90;;;;;;;3.96;100.00;96634.82;110474;1241;69416;-75
2024/01/06 08:35:07;;;;;;;25.50;20.40;;;;;;;4.15;100.00;96634.06;110406;1240;59660;-75
2024/01/06 08:37:36;;;;;;;27.70;22.50;;;;;;;4.36;100.00;96629.88;110441;1242;59660;-75
2024/01/06 08:40:06;;;;;;;26.40;19.30;;;;;;;4.54;100.00;96626.33;110383;1240;72320;-76
2024/01/06 08:42:36;;;;;;;21.50;18.10;;;;;;;4.75;100.00;96622.83;110408;1241;68767;-75
2024/01/06 08:45:06;;;;;;;23.80;18.40;;;;;;;4.95;100.00;96618.99;110439;1243;67392;-76
2024/01/06 08:47:35;;;;;;;27.70;20.30;;;;;;;5.11;100.00;96620.05;110454;1243;60062;-75
2024/01/06 08:50:05;;;;;;;20.60;17.50;;;;;;;5.27;100.00;96620.24;110371;1243;59663;-75
2024/01/06 08:52:34;;;;;;;;;;;;;;;5.38;100.00;96611.23;110440;1242;71429;-75
2024/01/06 08:55:04;;;;;;;20.00;15.20;;;;;;;5.45;100.00;96606.29;110340;1241;69461;-75
2024/01/06 08:57:33;;;;;;;22.80;15.90;;;;;;;5.52;100.00;96603.36;110388;1242;69797;-76
2024/01/06 09:00:04;;;;;;;19.20;14.00;;;;;;;5.69;100.00;96602.80;110484;1241;59691;-75
2024/01/06 09:02:33;;;;;;;32.60;26.80;;;;;;;5.94;100.00;96607.39;110523;1242;59689;-76
2024/01/06 09:05:02;;;;;;;29.40;23.40;;;;;;;6.23;100.00;96610.97;110363;1243;71988;-75
2024/01/06 09:07:31;;;;;;;32.60;26.60;;;;;;;6.73;99.77;96605.45;110378;1242;69232;-75
2024/01/06 09:10:00;;;;;;;35.80;30.60;;;;;;;7.12;97.53;96602.16;110439;1246;69743;-75
2024/01/06 09:12:29;;;;;;;41.70;32.10;;;;;;;7.31;95.67;96600.81;110362;1242;59828;-74
2024/01/06 09:15:00;;;;;;;37.90;29.40;;;;;;;7.76;92.58;96595.04;110386;1242;59697;-74
2024/01/06 09:17:31;;;;;;;39.40;31.60;;;;;;;8.29;96.19;96596.65;110426;1242;72451;-75
2024/01/06 09:20:01;;;;;;;38.20;32.20;;;;;;;8.77;94.02;96594.25;110388;1242;69272;-75
2024/01/06 09:22:30;;;;;;;40.70;32.00;;;;;;;9.24;94.76;96589.16;110497;1243;68764;-75
2024/01/06 09:25:00;;;;;;;43.40;36.20;;;;;;;9.61;81.03;96582.83;110531;1241;59670;-74
2024/01/06 09:27:29;;;;;;;42.60;34.20;;;;;;;9.88;76.62;96579.64;110211;1244;59747;-76
2024/01/06 09:29:58;;;;;;;41.00;33.80;;;;;;;10.24;75.52;96583.40;110552;1242;71988;-75
2024/01/06 09:32:27;;;;;;;44.00;32.80;;;;;;;10.69;72.86;96576.27;110460;1243;70354;-75
2024/01/06 09:34:56;;;;;;;42.20;35.60;;;;;;;11.09;69.86;96572.21;110355;1244;69874;-76
2024/01/06 09:37:26;;;;;;;37.60;31.30;;;;;;;11.87;73.39;96574.86;110339;1241;59668;-75
2024/01/06 09:39:55;;;;;;;34.70;28.90;;;;;;;12.34;68.45;96571.40;110354;1241;59655;-76
2024/01/06 09:42:25;;;;;;;29.80;25.70;;;;;;;12.85;62.89;96569.33;110477;1243;72322;-74
2024/01/06 09:44:55;;;;;;;32.80;29.30;;;;;;;13.34;70.46;96568.02;110548;1242;69212;-74
2024/01/06 09:47:28;;;;;;;32.00;28.00;;;;;;;13.24;67.54;96558.21;110466;1242;70226;-76
2024/01/06 09:50:04;;;;;;;29.50;25.90;;;;;;;12.82;61.64;96554.64;110432;1241;59679;-74
2024/01/06 09:52:36;;;;;;;34.60;28.20;;;;;;;12.98;65.19;96558.91;110449;1242;59729;-74
2024/01/06 09:55:11;;;;;;;24.70;21.80;;;;;;;12.90;61.59;96551.05;110400;1244;71265;-74
2024/01/06 09:57:40;;;;;;;24.20;21.10;;;;;;;13.01;59.05;96542.85;110542;1243;69676;-74
2024/01/06 10:00:10;;;;;;;24.20;21.50;;;;;;;13.27;59.20;96538.62;110367;1243;69092;-76
2024/01/06 10:02:40;;;;;;;21.30;17.90;;;;;;;13.31;60.48;96533.80;110426;1241;59811;-75
2024/01/06 10:05:12;;;;;;;20.60;18.20;;;;;;;13.12;59.28;96531.81;110436;1242;59626;-74
2024/01/06 10:07:45;;;;;;;19.40;17.30;;;;;;;12.76;58.14;96526.57;110402;1241;71994;-74
2024/01/06 10:10:15;;;;;;;18.70;16.40;;;;;;;12.69;58.04;96527.06;110350;1241;68476;-74
2024/01/06 10:12:44;;;;;;;20.70;18.20;;;;;;;12.50;58.34;96518.52;110415;1241;69745;-76
2024/01/06 10:15:14;;;;;;;18.90;16.40;;;;;;;12.40;59.87;96519.80;110485;1243;59698;-74
2024/01/06 10:17:43;;;;;;;17.30;14.70;;;;;;;12.52;61.68;96517.30;110464;1248;59695;-76
2024/01/06 10:20:13;;;;;;;16.80;14.70;;;;;;;12.45;60.22;96510.90;110429;1242;71345;-75
2024/01/06 10:22:44;;;;;;;18.40;14.20;;;;;;;12.48;59.86;96507.36;110459;1242;69231;-75
2024/01/06 10:25:13;;;;;;;15.10;13.20;;;;;;;12.62;60.34;96509.65;110519;1243;69769;-74
2024/01/06 10:27:42;;;;;;;16.20;14.20;;;;;;;12.22;58.45;96505.75;110529;1242;59756;-74
2024/01/06 10:30:17;;;;;;;16.50;13.70;;;;;;;12.24;60.35;96502.08;110389;1241;59675;-74
2024/01/06 10:32:47;;;;;;;14.60;11.80;;;;;;;11.72;59.99;96495.77;110410;1240;71329;-74
2024/01/06 10:35:18;;;;;;;14.80;11.50;;;;;;;11.37;60.49;96488.46;110490;1242;69286;-74
2024/01/06 10:37:49;;;;;;;17.10;13.30;;;;;;;11.14;62.75;96493.15;110383;1241;69859;-74
2024/01/06 10:40:18;;;;;;;17.20;14.40;;;;;;;11.00;62.80;96490.92;110400;1242;59734;-74
2024/01/06 10:42:47;;;;;;;15.80;13.00;;;;;;;10.96;62.61;96486.95;110478;1241;59671;-74
2024/01/06 10:45:17;;;;;;;16.90;14.60;;;;;;;10.94;63.55;96485.04;110523;1242;72011;-74
2024/01/06 10:47:48;;;;;;;16.20;12.20;;;;;;;11.08;63.43;96481.85;110216;1241;69202;-74
2024/01/06 10:50:19;;;;;;;14.00;10.90;;;;;;;11.27;62.96;96474.50;110327;1242;69928;-74
2024/01/06 10:52:48;;;;;;;15.60;12.90;;;;;;;11.47;62.55;96472.33;110582;1238;59752;-74
2024/01/06 10:55:20;;;;;;;18.00;13.00;;;;;;;11.74;63.08;96474.21;110547;1242;59743;-75
2024/01/06 10:57:51;;;;;;;15.00;11.30;;;;;;;12.12;59.91;96466.21;110501;1241;71325;-74
2024/01/06 11:00:21;;;;;;;14.70;10.80;;;;;;;12.91;58.93;96460.26;110489;1249;69794;-73
2024/01/06 11:02:52;;;;;;;14.90;10.70;;;;;;;13.72;55.66;96451.55;110426;1241;69289;-73
2024/01/06 11:05:22;;;;;;;12.80;9.80;;;;;;;14.46;51.66;96448.55;110018;1241;617977;-73
2024/01/06 11:07:55;;;;;;;11.30;9.20;;;;;;;15.40;47.38;96442.45;110796;1242;59754;-75
2024/01/06 11:10:27;;;;;;;9.30;8.10;;;;;;;16.35;45.56;96442.74;110868;1242;71358;-75
2024/01/06 11:13:12;;;;;;;9.10;7.70;;;;;;;16.85;42.77;96436.63;110862;1242;69249;-75
2024/01/06 11:15:44;;;;;;;8.60;7.50;;;;;;;16.94;40.85;96432.49;110777;1242;68370;-75
2024/01/06 11:18:39;;;;;;;6.40;5.30;;;;;;;17.17;39.43;96428.99;110469;1242;59709;-76
2024/01/06 11:21:17;;;;;;;7.50;5.90;;;;;;;16.88;37.67;96426.20;110501;1242;59698;-75
2024/01/06 11:24:20;;;;;;;8.60;6.50;;;;;;;17.15;38.96;96416.14;110556;1241;71225;-76
2024/01/06 11:26:51;;;;;;;8.50;6.00;;;;;;;17.31;40.10;96414.14;110388;1242;69803;-77
2024/01/06 11:29:20;;;;;;;7.60;5.40;;;;;;;17.18;37.63;96409.28;110330;1241;70004;-76
2024/01/06 11:32:08;;;;;;;;;;;;;;;17.03;37.84;96406.42;110162;1246;59693;-76